Wawa, Ontario

4:11 PM EST on February 27, 2017 (GMT -0500)
Wawa | | Change Station

Elev 942 ft 47.97 °N, 84.78 °W | Updated 11 minutes ago

Snow
Snow
25 °F
Feels Like 15 °F
N
9
Wind Variable Wind from SW
Gusts 17 mph

Today
High -- | Low -- °F
--% Chance of Precip.
Yesterday
High -- | Low -- °F
Precip. -- in
Pressure 30.14 in
Visibility 8.0 miles
Clouds Few 3200 ft
Scattered Clouds 4000 ft
Overcast 15000 ft
Windchill 15 °F
Dew Point 18 °F
Humidity 74%
Rainfall 0.00 in
Snow Depth Not available.
7:23 AM 6:20 PM
New Moon, 2% visible
METAR CYXZ 272100Z 22008G15KT 8SM -SN DRSN FEW032 SCT040 OVC150 M04/M08 A3006 RMK SC2SC1AS5 SLP204
Pressure 30.14 in
Visibility 8.0 miles
Clouds Few 3200 ft
Scattered Clouds 4000 ft
Overcast 15000 ft
Windchill 15 °F
Dew Point 18 °F
Humidity 74%
Rainfall 0.00 in
Snow Depth Not available.
7:23 AM 6:20 PM
New Moon, 2% visible
METAR CYXZ 272100Z 22008G15KT 8SM -SN DRSN FEW032 SCT040 OVC150 M04/M08 A3006 RMK SC2SC1AS5 SLP204

Get Your Daily Forecast Email!

Thanks for signing up!

Be on the lookout for a verification email in your inbox.

You'll start receiving the daily forecast at 8 AM.

×

10-Day Weather Forecast

Almanac

Astronomy

Feb. 27, 2017 Rise Set
Actual Time
Civil Twilight
Nautical Twilight
Astronomical Twilight
Moon
Length of Visible Light
Length of Day
Tomorrow will be .
, % of the Moon is Illuminated

Today's Extremes

Country Highs Country Lows

Community

WunderPhotos

Upload Photos

1,962,540 photos uploaded!

WunderBlog® & News

Nearby

Air Quality

  Air Quality AQ Index Pollutant
Not available.

Snow Depth

Station Depth Elevation

Earthquake Activity

City Distance Mag. Time & Date
Minimum magnitude displayed is 2.5.

Coastal Water Temperatures

Place Temperature

Stations

Nearby Weather Stations

Station Location Temp. Windchill Dew Point Humidity Wind Precip. Elev Updated Type
                   

Watches & Warnings

There are currently no watches in effect.